createdAt,value
2023-02-24T00:00:16.230Z,7.19
2023-02-24T00:01:16.215Z,7.21
2023-02-24T00:02:16.296Z,7.18
2023-02-24T00:03:16.869Z,7.19
2023-02-24T00:04:16.428Z,7.05
2023-02-24T00:05:16.481Z,7.08
2023-02-24T00:06:16.376Z,7.12
2023-02-24T00:07:16.391Z,7.08
2023-02-24T00:08:16.149Z,7.08
2023-02-24T00:09:16.108Z,7.04
2023-02-24T00:10:16.400Z,7.08
2023-02-24T00:11:16.350Z,7.01
2023-02-24T00:12:16.469Z,7
2023-02-24T00:13:16.030Z,6.97
2023-02-24T00:14:15.753Z,7.01
2023-02-24T00:15:16.246Z,7.03
2023-02-24T00:16:16.327Z,7.03
2023-02-24T00:17:16.546Z,6.98
2023-02-24T00:18:15.947Z,6.97
2023-02-24T00:19:16.000Z,7
2023-02-24T00:20:16.188Z,6.88
2023-02-24T00:21:16.193Z,6.94
2023-02-24T00:22:15.905Z,6.88
2023-02-24T00:23:16.130Z,6.9
2023-02-24T00:24:15.862Z,6.91
2023-02-24T00:25:15.581Z,6.88
2023-02-24T00:26:16.088Z,6.9
2023-02-24T00:27:15.920Z,6.91
2023-02-24T00:28:16.053Z,6.83
2023-02-24T00:29:15.840Z,6.86
2023-02-24T00:30:15.790Z,6.82
2023-02-24T00:31:16.249Z,6.82
2023-02-24T00:32:16.846Z,6.86
2023-02-24T00:33:15.993Z,6.85
2023-02-24T00:34:15.990Z,6.82
2023-02-24T00:35:16.128Z,6.83
2023-02-24T00:36:15.703Z,6.8
2023-02-24T00:37:15.736Z,6.94
2023-02-24T00:38:15.670Z,6.85
2023-02-24T00:39:15.662Z,6.82
2023-02-24T00:40:15.920Z,6.94
2023-02-24T00:41:15.883Z,6.86
2023-02-24T00:42:15.865Z,6.93
2023-02-24T00:43:15.600Z,6.85
2023-02-24T00:44:15.859Z,6.82
2023-02-24T00:45:15.563Z,6.85
2023-02-24T00:46:16.121Z,6.83
2023-02-24T00:47:15.792Z,6.85
2023-02-24T00:48:15.514Z,6.8
2023-02-24T00:49:15.766Z,6.79
2023-02-24T00:50:15.758Z,6.83
2023-02-24T00:51:15.776Z,6.85
2023-02-24T00:52:15.732Z,6.83
2023-02-24T00:53:15.727Z,6.93
2023-02-24T00:54:15.684Z,6.9
2023-02-24T00:55:15.436Z,6.94
2023-02-24T00:56:15.410Z,6.93
2023-02-24T00:57:15.676Z,6.9
2023-02-24T00:58:15.369Z,6.93
2023-02-24T00:59:15.627Z,6.93
2023-02-24T01:00:15.357Z,6.86
2023-02-24T01:01:15.499Z,6.9
2023-02-24T01:02:15.330Z,6.91
2023-02-24T01:03:15.557Z,6.91
2023-02-24T01:04:15.913Z,6.94
2023-02-24T01:05:15.276Z,6.9
2023-02-24T01:06:15.510Z,6.91
2023-02-24T01:07:16.172Z,6.95
2023-02-24T01:08:15.472Z,6.9
2023-02-24T01:09:15.234Z,6.88
2023-02-24T01:10:15.238Z,6.91
2023-02-24T01:11:15.432Z,6.9
2023-02-24T01:12:15.430Z,6.93
2023-02-24T01:13:14.878Z,6.83
2023-02-24T01:14:15.128Z,6.93
2023-02-24T01:15:15.364Z,6.94
2023-02-24T01:16:15.354Z,6.85
2023-02-24T01:17:15.351Z,6.83
2023-02-24T01:18:16.084Z,6.8
2023-02-24T01:19:15.303Z,6.83
2023-02-24T01:20:15.311Z,6.78
2023-02-24T01:21:15.028Z,6.82
2023-02-24T01:22:15.256Z,6.91
2023-02-24T01:23:15.293Z,6.86
2023-02-24T01:24:15.246Z,6.79
2023-02-24T01:25:15.241Z,6.8
2023-02-24T01:26:14.951Z,6.83
2023-02-24T01:27:15.201Z,6.78
2023-02-24T01:28:14.927Z,6.75
2023-02-24T01:29:15.205Z,6.76
2023-02-24T01:30:15.138Z,6.83
2023-02-24T01:31:15.225Z,6.79
2023-02-24T01:32:15.903Z,6.78
2023-02-24T01:34:14.824Z,6.86
2023-02-24T01:35:14.813Z,6.75
2023-02-24T01:36:15.054Z,6.73
2023-02-24T01:37:15.045Z,6.76
2023-02-24T01:38:14.518Z,6.73
2023-02-24T01:39:14.801Z,6.75
2023-02-24T01:40:14.726Z,6.64
2023-02-24T01:41:15.005Z,6.7
2023-02-24T01:42:14.959Z,6.72
2023-02-24T01:43:14.683Z,6.73
2023-02-24T01:44:14.930Z,6.65
2023-02-24T01:45:14.669Z,6.68
2023-02-24T01:46:15.166Z,6.65
2023-02-24T01:47:14.905Z,6.68
2023-02-24T01:48:14.879Z,6.79
2023-02-24T01:49:14.854Z,6.67
2023-02-24T01:50:14.897Z,6.78
2023-02-24T01:51:14.558Z,6.72
2023-02-24T01:52:14.560Z,6.73
2023-02-24T01:53:14.555Z,6.76
2023-02-24T01:54:14.736Z,6.75
2023-02-24T01:55:14.562Z,6.76
2023-02-24T01:56:14.499Z,6.78
2023-02-24T01:57:14.771Z,6.82
2023-02-24T01:58:14.466Z,6.73
2023-02-24T01:59:14.447Z,6.76
2023-02-24T02:00:14.565Z,6.73
2023-02-24T02:01:14.690Z,6.73
2023-02-24T02:02:14.833Z,6.68
2023-02-24T02:03:14.647Z,6.72
2023-02-24T02:04:14.620Z,6.68
2023-02-24T02:05:14.624Z,6.75
2023-02-24T02:06:14.600Z,6.73
2023-02-24T02:07:14.617Z,6.78
2023-02-24T02:08:14.581Z,6.67
2023-02-24T02:09:14.569Z,6.58
2023-02-24T02:10:14.559Z,6.67
2023-02-24T02:11:14.560Z,6.73
2023-02-24T02:12:14.551Z,6.58
2023-02-24T02:13:14.275Z,6.75
2023-02-24T02:14:14.478Z,6.72
2023-02-24T02:15:14.501Z,6.75
2023-02-24T02:16:14.604Z,6.75
2023-02-24T02:17:14.503Z,6.72
2023-02-24T02:18:14.406Z,6.75
2023-02-24T02:19:14.409Z,6.7
2023-02-24T02:20:13.864Z,6.7
2023-02-24T02:21:13.865Z,6.73
2023-02-24T02:22:14.347Z,6.72
2023-02-24T02:23:14.070Z,6.7
2023-02-24T02:24:14.064Z,6.72
2023-02-24T02:25:14.044Z,6.7
2023-02-24T02:26:14.033Z,6.68
2023-02-24T02:27:14.789Z,6.67
2023-02-24T02:28:14.983Z,6.68
2023-02-24T02:29:14.761Z,6.76
2023-02-24T02:30:14.958Z,6.75
2023-02-24T02:31:15.271Z,6.73
2023-02-24T02:32:15.469Z,6.58
2023-02-24T02:33:14.399Z,6.64
2023-02-24T02:34:14.894Z,6.67
2023-02-24T02:35:14.365Z,6.64
2023-02-24T02:36:14.663Z,6.67
2023-02-24T02:37:14.849Z,6.76
2023-02-24T02:38:14.576Z,6.65
2023-02-24T02:39:14.830Z,6.7
2023-02-24T02:40:14.809Z,6.67
2023-02-24T02:41:14.786Z,6.62
2023-02-24T02:42:14.511Z,6.7
2023-02-24T02:43:14.802Z,6.62
2023-02-24T02:44:14.560Z,6.64
2023-02-24T02:45:14.762Z,6.61
2023-02-24T02:46:14.985Z,6.64
2023-02-24T02:47:14.690Z,6.64
2023-02-24T02:48:14.424Z,6.58
2023-02-24T02:49:14.673Z,6.57
2023-02-24T02:50:14.658Z,6.55
2023-02-24T02:51:14.641Z,6.62
2023-02-24T02:52:14.619Z,6.52
2023-02-24T02:53:14.398Z,6.51
2023-02-24T02:54:14.359Z,6.52
2023-02-24T02:55:14.595Z,6.61
2023-02-24T02:56:14.558Z,6.54
2023-02-24T02:57:14.322Z,6.49
2023-02-24T02:58:14.272Z,6.55
2023-02-24T02:59:14.551Z,6.57
2023-02-24T03:00:14.269Z,6.49
2023-02-24T03:01:14.606Z,6.58
2023-02-24T03:02:14.236Z,6.57
2023-02-24T03:03:14.518Z,6.52
2023-02-24T03:04:14.429Z,6.47
2023-02-24T03:05:13.908Z,6.52
2023-02-24T03:06:14.201Z,6.51
2023-02-24T03:07:14.393Z,6.54
2023-02-24T03:08:13.872Z,6.54
2023-02-24T03:09:14.114Z,6.52
2023-02-24T03:10:14.081Z,6.43
2023-02-24T03:11:13.837Z,6.46
2023-02-24T03:12:14.309Z,6.46
2023-02-24T03:13:14.316Z,6.46
2023-02-24T03:14:14.277Z,6.43
2023-02-24T03:15:14.318Z,6.44
2023-02-24T03:16:14.320Z,6.4
2023-02-24T03:17:14.263Z,6.36
2023-02-24T03:18:14.232Z,6.39
2023-02-24T03:19:14.202Z,6.37
2023-02-24T03:20:14.207Z,6.37
2023-02-24T03:21:13.917Z,6.37
2023-02-24T03:22:14.163Z,6.4
2023-02-24T03:23:14.151Z,6.28
2023-02-24T03:24:13.873Z,6.44
2023-02-24T03:25:13.850Z,6.36
2023-02-24T03:26:14.081Z,6.47
2023-02-24T03:27:13.822Z,6.34
2023-02-24T03:28:14.067Z,6.37
2023-02-24T03:29:13.801Z,6.26
2023-02-24T03:30:14.021Z,6.39
2023-02-24T03:31:14.289Z,6.37
2023-02-24T03:32:13.963Z,6.37
2023-02-24T03:49:34.722Z,5.91
2023-02-24T03:50:34.407Z,5.8
2023-02-24T03:51:34.624Z,5.8
2023-02-24T03:52:34.344Z,5.75
2023-02-24T03:53:34.339Z,5.59
2023-02-24T03:54:34.588Z,5.66
2023-02-24T03:55:34.025Z,5.6
2023-02-24T03:56:34.515Z,5.63
2023-02-24T03:57:34.505Z,5.57
2023-02-24T03:58:34.509Z,5.48
2023-02-24T03:59:34.483Z,5.51
2023-02-24T04:00:34.469Z,5.39
2023-02-24T04:01:34.439Z,5.41
2023-02-24T04:02:34.677Z,5.41
2023-02-24T04:03:33.883Z,5.45
2023-02-24T04:04:34.268Z,5.42
2023-02-24T04:05:34.440Z,5.39
2023-02-24T04:06:34.092Z,5.41
2023-02-24T04:07:34.336Z,5.34
2023-02-24T04:08:34.064Z,5.36
2023-02-24T04:09:34.048Z,5.39
2023-02-24T04:10:34.057Z,5.37
2023-02-24T04:11:34.266Z,5.37
2023-02-24T04:12:34.448Z,5.3
2023-02-24T04:13:34.252Z,5.34
2023-02-24T04:14:34.233Z,5.36
2023-02-24T04:15:34.156Z,5.33
2023-02-24T04:16:33.676Z,5.37
2023-02-24T04:17:33.906Z,5.34
2023-02-24T04:18:34.160Z,5.42
2023-02-24T04:19:34.124Z,5.49
2023-02-24T04:20:33.868Z,5.41
2023-02-24T04:21:34.369Z,5.37
2023-02-24T04:22:33.572Z,5.36
2023-02-24T04:23:34.070Z,5.42
2023-02-24T04:24:33.813Z,5.37
2023-02-24T04:25:33.778Z,5.45
2023-02-24T04:26:35.410Z,5.39
2023-02-24T04:27:33.756Z,5.46
2023-02-24T04:28:33.974Z,5.39
2023-02-24T04:29:33.707Z,5.3
2023-02-24T04:30:33.755Z,5.41
2023-02-24T04:31:35.033Z,5.31
2023-02-24T04:32:34.862Z,5.37
2023-02-24T04:33:34.345Z,5.34
2023-02-24T04:34:34.090Z,5.39
2023-02-24T04:35:34.322Z,5.37
2023-02-24T04:36:34.556Z,5.39
2023-02-24T04:37:34.627Z,5.34
2023-02-24T04:38:34.260Z,5.39
2023-02-24T04:39:34.246Z,5.34
2023-02-24T04:40:34.518Z,5.34
2023-02-24T04:41:34.242Z,5.26
2023-02-24T04:42:33.972Z,5.23
2023-02-24T04:43:34.197Z,5.31
2023-02-24T04:44:34.518Z,5.27
2023-02-24T04:45:34.396Z,5.24
2023-02-24T04:46:34.519Z,5.26
2023-02-24T04:47:34.135Z,5.21
2023-02-24T04:48:34.351Z,5.21
2023-02-24T04:49:34.099Z,5.18
2023-02-24T04:50:34.330Z,5.18
2023-02-24T04:51:34.083Z,5.21
2023-02-24T04:52:34.280Z,5.18
2023-02-24T04:53:34.415Z,5.2
2023-02-24T04:54:34.242Z,5.16
2023-02-24T04:55:34.367Z,5.26
2023-02-24T04:56:34.229Z,5.15
2023-02-24T04:57:34.214Z,5.16
2023-02-24T04:58:33.966Z,5.2
2023-02-24T04:59:33.909Z,5.15
2023-02-24T05:00:34.154Z,5.24
2023-02-24T05:01:34.167Z,5.24
2023-02-24T05:02:34.134Z,5.18
2023-02-24T05:03:33.816Z,5.18
2023-02-24T05:04:34.423Z,5.18
2023-02-24T05:05:34.071Z,5
2023-02-24T05:06:34.053Z,5.06
2023-02-24T05:07:33.784Z,4.98
2023-02-24T05:08:33.763Z,4.94
2023-02-24T05:09:34.181Z,4.98
2023-02-24T05:10:33.991Z,4.95
2023-02-24T05:11:33.981Z,4.91
2023-02-24T05:12:33.447Z,4.92
2023-02-24T05:13:33.424Z,4.79
2023-02-24T05:14:33.932Z,4.83
2023-02-24T05:15:33.841Z,4.83
2023-02-24T05:16:34.094Z,4.76
2023-02-24T05:17:33.907Z,4.72
2023-02-24T05:18:33.885Z,4.76
2023-02-24T05:19:33.837Z,4.74
2023-02-24T05:20:33.572Z,4.72
2023-02-24T05:21:33.893Z,4.76
2023-02-24T05:22:33.593Z,4.85
2023-02-24T05:23:33.811Z,4.74
2023-02-24T05:24:33.776Z,4.75
2023-02-24T05:25:33.817Z,4.71
2023-02-24T05:26:33.727Z,4.69
2023-02-24T05:27:33.715Z,4.69
2023-02-24T05:28:33.693Z,4.68
2023-02-24T05:29:33.672Z,4.72
2023-02-24T05:30:33.767Z,4.6
2023-02-24T05:31:34.092Z,4.64
2023-02-24T05:32:34.126Z,4.64
2023-02-24T05:33:33.092Z,4.65
2023-02-24T05:34:33.591Z,4.64
2023-02-24T05:35:33.582Z,4.64
2023-02-24T05:36:33.347Z,4.66
2023-02-24T05:37:33.535Z,4.66
2023-02-24T05:38:33.006Z,4.68
2023-02-24T05:39:33.278Z,4.75
2023-02-24T05:40:33.489Z,4.66
2023-02-24T05:41:33.543Z,4.72
2023-02-24T05:42:33.212Z,4.69
2023-02-24T05:43:33.452Z,4.68
2023-02-24T05:44:33.433Z,4.69
2023-02-24T05:45:33.154Z,4.66
2023-02-24T05:46:33.374Z,4.71
2023-02-24T05:47:33.359Z,4.68
2023-02-24T05:48:33.096Z,4.72
2023-02-24T05:49:33.208Z,4.74
2023-02-24T05:50:33.064Z,4.76
2023-02-24T05:51:33.308Z,4.75
2023-02-24T05:52:33.025Z,4.72
2023-02-24T05:53:33.313Z,4.69
2023-02-24T05:54:33.255Z,4.68
2023-02-24T05:55:33.242Z,4.65
2023-02-24T05:56:33.213Z,4.71
2023-02-24T05:57:33.279Z,4.66
2023-02-24T05:58:33.182Z,4.66
2023-02-24T05:59:33.520Z,4.75
2023-02-24T06:00:32.888Z,4.66
2023-02-24T06:01:32.872Z,4.66
2023-02-24T06:02:33.313Z,4.66
2023-02-24T06:03:32.934Z,4.61
2023-02-24T06:04:33.084Z,4.71
2023-02-24T06:05:32.815Z,4.65
2023-02-24T06:06:32.545Z,4.69
2023-02-24T06:07:33.032Z,4.76
2023-02-24T06:08:33.021Z,4.72
2023-02-24T06:09:32.755Z,4.79
2023-02-24T06:10:32.995Z,4.83
2023-02-24T06:11:33.119Z,4.83
2023-02-24T06:12:32.707Z,4.92
2023-02-24T06:13:33.038Z,4.85
2023-02-24T06:14:32.666Z,4.83
2023-02-24T06:15:32.646Z,4.92
2023-02-24T06:16:32.883Z,4.85
2023-02-24T06:17:32.856Z,4.91
2023-02-24T06:18:32.843Z,4.94
2023-02-24T06:19:32.323Z,4.84
2023-02-24T06:20:32.821Z,4.9
2023-02-24T06:21:32.540Z,4.9
2023-02-24T06:22:32.775Z,4.83
2023-02-24T06:23:32.759Z,4.91
2023-02-24T06:24:32.765Z,4.92
2023-02-24T06:25:32.748Z,4.91
2023-02-24T06:26:32.528Z,4.92
2023-02-24T06:27:32.445Z,4.91
2023-02-24T06:28:32.181Z,4.9
2023-02-24T06:29:32.741Z,4.97
2023-02-24T06:30:32.863Z,4.92
2023-02-24T06:31:32.559Z,4.95
2023-02-24T06:32:33.038Z,5
2023-02-24T06:33:32.617Z,5.03
2023-02-24T06:34:32.633Z,5.02
2023-02-24T06:35:32.589Z,5.09
2023-02-24T06:36:32.299Z,4.98
2023-02-24T06:37:32.550Z,5.02
2023-02-24T06:38:32.265Z,5.06
2023-02-24T06:39:33.051Z,5
2023-02-24T06:40:32.501Z,4.95
2023-02-24T06:41:32.212Z,5.05
2023-02-24T06:42:32.199Z,5
2023-02-24T06:43:32.181Z,5.03
2023-02-24T06:44:32.168Z,4.98
2023-02-24T06:45:32.506Z,5.05
2023-02-24T06:46:32.308Z,4.97
2023-02-24T06:47:32.127Z,4.97
2023-02-24T06:48:32.095Z,4.98
2023-02-24T06:49:32.342Z,5
2023-02-24T06:50:32.322Z,4.97
2023-02-24T06:51:32.106Z,4.9
2023-02-24T06:52:32.052Z,4.9
2023-02-24T06:53:31.764Z,4.95
2023-02-24T06:54:32.265Z,4.94
2023-02-24T06:55:32.022Z,4.94
2023-02-24T06:56:34.762Z,4.95
2023-02-24T06:57:32.211Z,4.92
2023-02-24T06:58:31.940Z,4.92
2023-02-24T06:59:31.950Z,4.9
2023-02-24T07:00:32.181Z,4.9
2023-02-24T07:01:32.398Z,4.92
2023-02-24T07:02:32.128Z,4.91
2023-02-24T07:03:32.110Z,4.95
2023-02-24T07:04:33.907Z,4.97
2023-02-24T07:05:32.086Z,4.92
2023-02-24T07:06:32.075Z,5.05
2023-02-24T07:07:32.052Z,5.12
2023-02-24T07:08:32.050Z,5.12
2023-02-24T07:09:31.764Z,5.09
2023-02-24T07:10:31.490Z,5
2023-02-24T07:11:31.994Z,5.03
2023-02-24T07:12:31.980Z,5.02
2023-02-24T07:13:31.722Z,5
2023-02-24T07:14:31.957Z,5.05
2023-02-24T07:15:31.655Z,5.16
2023-02-24T07:16:32.039Z,5.15
2023-02-24T07:17:31.954Z,5.15
2023-02-24T07:18:31.618Z,5.2
2023-02-24T07:19:31.982Z,5.21
2023-02-24T07:20:31.936Z,5.18
2023-02-24T07:21:31.822Z,5.2
2023-02-24T07:22:31.546Z,5.23
2023-02-24T07:23:31.788Z,5.2
2023-02-24T07:24:31.796Z,5.21
2023-02-24T07:25:31.748Z,5.24
2023-02-24T07:26:31.501Z,5.33
2023-02-24T07:27:31.750Z,5.3
2023-02-24T07:28:31.754Z,5.28
2023-02-24T07:29:31.459Z,5.23
2023-02-24T07:30:32.018Z,5.26
2023-02-24T07:31:31.758Z,5.28
2023-02-24T07:32:31.765Z,5.26
2023-02-24T07:33:31.699Z,5.28
2023-02-24T07:34:31.410Z,5.26
2023-02-24T07:35:31.585Z,5.41
2023-02-24T07:36:31.570Z,5.46
2023-02-24T07:37:31.835Z,5.42
2023-02-24T07:38:31.288Z,5.44
2023-02-24T07:39:31.526Z,5.39
2023-02-24T07:40:31.363Z,5.39
2023-02-24T07:41:33.760Z,5.44
2023-02-24T07:42:31.536Z,5.48
2023-02-24T07:43:31.454Z,5.51
2023-02-24T07:44:31.438Z,5.48
2023-02-24T07:45:31.316Z,5.48
2023-02-24T07:46:31.515Z,5.48
2023-02-24T07:47:31.420Z,5.46
2023-02-24T07:48:31.372Z,5.52
2023-02-24T07:49:31.438Z,5.51
2023-02-24T07:50:31.401Z,5.42
2023-02-24T07:51:31.108Z,5.48
2023-02-24T07:52:31.051Z,5.46
2023-02-24T07:53:31.295Z,5.44
2023-02-24T07:54:31.025Z,5.48
2023-02-24T07:55:31.395Z,5.44
2023-02-24T07:56:31.025Z,5.42
2023-02-24T07:57:30.992Z,5.41
2023-02-24T07:58:31.219Z,5.37
2023-02-24T07:59:30.950Z,5.34
2023-02-24T08:00:31.194Z,5.3
2023-02-24T08:01:30.922Z,5.23
2023-02-24T08:02:31.037Z,5.3
2023-02-24T08:03:30.623Z,5.23
2023-02-24T08:04:31.214Z,5.23
2023-02-24T08:05:31.357Z,5.15
2023-02-24T08:06:31.086Z,5.23
2023-02-24T08:07:30.821Z,5.18
2023-02-24T08:08:31.066Z,5.28
2023-02-24T08:09:31.042Z,5.23
2023-02-24T08:10:31.542Z,5.15
2023-02-24T08:11:31.673Z,5.18
2023-02-24T08:12:33.131Z,5.12
2023-02-24T08:13:31.657Z,5.16
2023-02-24T08:14:31.625Z,5.12
2023-02-24T08:15:31.890Z,5.18
2023-02-24T08:16:31.844Z,5.31
2023-02-24T08:17:31.636Z,5.2
2023-02-24T08:18:31.841Z,5.39
2023-02-24T08:19:31.792Z,5.36
2023-02-24T08:20:31.838Z,5.42
2023-02-24T08:21:31.895Z,5.34
2023-02-24T08:22:31.489Z,5.37
2023-02-24T08:23:31.737Z,5.36
2023-02-24T08:24:31.455Z,5.33
2023-02-24T08:25:31.187Z,5.42
2023-02-24T08:26:31.955Z,5.41
2023-02-24T08:27:31.671Z,5.45
2023-02-24T08:28:31.265Z,5.41
2023-02-24T08:29:31.396Z,5.23
2023-02-24T08:30:31.542Z,5.28
2023-02-24T08:31:32.243Z,5.23
2023-02-24T08:32:31.925Z,5.18
2023-02-24T08:33:31.330Z,5.18
2023-02-24T08:34:31.055Z,5.24
2023-02-24T08:35:31.537Z,5.15
2023-02-24T08:36:31.535Z,5.09
2023-02-24T08:37:31.584Z,5.33
2023-02-24T08:38:31.497Z,5.24
2023-02-24T08:39:31.484Z,5.23
2023-02-24T08:40:31.492Z,5.34
2023-02-24T08:41:31.447Z,5.42
2023-02-24T08:42:30.911Z,5.42
2023-02-24T08:43:31.251Z,5.36
2023-02-24T08:44:31.415Z,5.34
2023-02-24T08:45:31.266Z,5.26
2023-02-24T08:46:31.940Z,5.33
2023-02-24T08:47:31.383Z,5.33
2023-02-24T08:48:31.078Z,5.34
2023-02-24T08:49:30.810Z,5.41
2023-02-24T08:50:31.132Z,5.42
2023-02-24T08:51:31.360Z,5.37
2023-02-24T08:52:33.480Z,5.45
2023-02-24T08:53:31.421Z,5.41
2023-02-24T08:54:31.229Z,5.37
2023-02-24T08:55:30.964Z,5.39
2023-02-24T08:56:31.207Z,5.41
2023-02-24T08:57:31.208Z,5.51
2023-02-24T08:58:31.205Z,5.63
2023-02-24T08:59:31.173Z,5.69
2023-02-24T09:00:31.146Z,5.75
2023-02-24T09:01:30.940Z,5.84
2023-02-24T09:02:31.123Z,5.87
2023-02-24T09:03:30.853Z,5.96
2023-02-24T09:04:31.225Z,5.96
2023-02-24T09:05:30.808Z,5.99
2023-02-24T09:06:31.043Z,6.06
2023-02-24T09:07:30.780Z,6.25
2023-02-24T09:08:31.012Z,6.42
2023-02-24T09:09:31.080Z,6.52
2023-02-24T09:10:31.099Z,6.46
2023-02-24T09:11:30.964Z,6.44
2023-02-24T09:12:31.050Z,6.49
2023-02-24T09:13:30.672Z,6.52
2023-02-24T09:14:32.966Z,6.55
2023-02-24T09:15:30.920Z,6.58
2023-02-24T09:16:31.126Z,6.65
2023-02-24T09:17:33.259Z,6.76
2023-02-24T09:18:30.862Z,6.72
2023-02-24T09:19:30.594Z,6.61
2023-02-24T09:20:30.653Z,6.55
2023-02-24T09:21:30.553Z,6.54
2023-02-24T09:22:30.533Z,6.6
2023-02-24T09:23:30.523Z,6.55
2023-02-24T09:24:30.771Z,6.57
2023-02-24T09:25:30.906Z,6.55
2023-02-24T09:26:30.730Z,6.52
2023-02-24T09:27:30.458Z,6.55
2023-02-24T09:28:30.889Z,6.49
2023-02-24T09:29:30.416Z,6.46
2023-02-24T09:30:30.552Z,6.43
2023-02-24T09:31:31.617Z,6.52
2023-02-24T09:32:31.289Z,6.55
2023-02-24T09:33:30.680Z,6.58
2023-02-24T09:34:30.369Z,6.65
2023-02-24T09:35:30.635Z,6.73
2023-02-24T09:36:30.770Z,6.83
2023-02-24T09:37:30.564Z,6.9
2023-02-24T09:38:30.555Z,6.86
2023-02-24T09:39:30.014Z,7.01
2023-02-24T09:40:30.528Z,7.03
2023-02-24T09:41:30.942Z,7.16
2023-02-24T09:42:30.492Z,7.29
2023-02-24T09:43:30.234Z,7.37
2023-02-24T09:44:30.461Z,7.44
2023-02-24T09:45:30.488Z,7.47
2023-02-24T09:46:30.642Z,7.49
2023-02-24T09:47:30.410Z,7.49
2023-02-24T09:48:30.137Z,7.58
2023-02-24T09:49:30.413Z,7.59
2023-02-24T09:51:06.155Z,7.67
2023-02-24T09:51:30.109Z,7.74
2023-02-24T09:52:30.351Z,7.59
2023-02-24T09:53:30.334Z,7.52
2023-02-24T09:54:30.061Z,7.51
2023-02-24T09:55:30.081Z,7.52
2023-02-24T09:56:30.287Z,7.64
2023-02-24T09:57:30.620Z,7.58
2023-02-24T09:58:46.403Z,7.63
2023-02-24T09:59:29.976Z,7.49
2023-02-24T10:00:30.270Z,7.37
2023-02-24T10:01:30.436Z,7.52
2023-02-24T10:02:30.428Z,7.41
2023-02-24T10:03:29.921Z,7.52
2023-02-24T10:04:30.189Z,7.36
2023-02-24T10:05:29.961Z,7.31
2023-02-24T10:06:29.617Z,7.36
2023-02-24T10:07:30.153Z,7.41
2023-02-24T10:08:29.593Z,7.31
2023-02-24T10:09:30.148Z,7.4
2023-02-24T10:10:30.133Z,7.37
2023-02-24T10:11:30.072Z,7.39
2023-02-24T10:12:30.053Z,7.45
2023-02-24T10:13:30.197Z,7.48
2023-02-24T10:14:51.071Z,7.48
2023-02-24T10:15:30.003Z,7.37
2023-02-24T10:16:30.228Z,7.59
2023-02-24T10:17:29.752Z,7.61
2023-02-24T10:18:29.729Z,7.77
2023-02-24T10:19:29.773Z,7.86
2023-02-24T10:20:29.943Z,7.83
2023-02-24T10:21:29.664Z,7.8
2023-02-24T10:22:30.021Z,7.71
2023-02-24T10:23:29.680Z,7.59
2023-02-24T10:24:29.874Z,7.51
2023-02-24T10:25:29.856Z,7.54
2023-02-24T10:26:29.901Z,7.51
2023-02-24T10:27:29.840Z,7.31
2023-02-24T10:28:29.311Z,7.29
2023-02-24T10:29:29.963Z,7.19
2023-02-24T10:30:30.438Z,7.13
2023-02-24T10:31:30.943Z,7.13
2023-02-24T10:32:30.073Z,7.13
2023-02-24T10:33:29.792Z,7.04
2023-02-24T10:34:29.731Z,7.03
2023-02-24T10:35:29.477Z,7.03
2023-02-24T10:36:29.734Z,7
2023-02-24T10:37:34.330Z,7.03
2023-02-24T10:38:29.165Z,7.05
2023-02-24T10:39:29.428Z,7.09
2023-02-24T10:40:29.803Z,7
2023-02-24T10:41:29.640Z,6.85
2023-02-24T10:42:29.375Z,6.82
2023-02-24T10:43:29.689Z,6.73
2023-02-24T10:44:29.701Z,6.55
2023-02-24T10:45:34.647Z,6.54
2023-02-24T10:46:46.243Z,6.46
2023-02-24T10:47:29.553Z,6.36
2023-02-24T10:48:45.581Z,6.25
2023-02-24T10:49:29.519Z,6.24
2023-02-24T10:50:32.175Z,6.21
2023-02-24T10:51:29.838Z,6.09
2023-02-24T10:52:29.219Z,6.2
2023-02-24T10:53:29.499Z,6.03
2023-02-24T10:54:29.182Z,5.98
2023-02-24T10:55:29.215Z,5.88
2023-02-24T10:56:29.537Z,5.75
2023-02-24T10:57:29.402Z,5.78
2023-02-24T10:58:29.379Z,5.57
2023-02-24T10:59:29.598Z,5.6
2023-02-24T11:00:29.086Z,5.59
2023-02-24T11:01:29.925Z,5.42
2023-02-24T11:02:30.219Z,5.45
2023-02-24T11:03:37.230Z,5.51
2023-02-24T11:04:29.297Z,5.55
2023-02-24T11:05:29.026Z,5.59
2023-02-24T11:06:29.279Z,5.7
2023-02-24T11:07:28.977Z,5.78
2023-02-24T11:08:28.977Z,5.75
2023-02-24T11:09:29.232Z,5.84
2023-02-24T11:10:28.933Z,5.87
2023-02-24T11:11:28.913Z,5.89
2023-02-24T11:12:29.177Z,5.92
2023-02-24T11:13:29.152Z,5.99
2023-02-24T11:14:29.126Z,5.99
2023-02-24T11:15:28.944Z,6.07
2023-02-24T11:16:29.307Z,6.13
2023-02-24T11:17:29.957Z,6.1
2023-02-24T11:18:29.087Z,6.25
2023-02-24T11:19:29.064Z,6.26
2023-02-24T11:20:48.807Z,6.4
2023-02-24T11:21:29.146Z,6.39
2023-02-24T11:22:28.996Z,6.51
2023-02-24T11:23:28.717Z,6.54
2023-02-24T11:24:28.994Z,6.58
2023-02-24T11:25:28.965Z,6.58
2023-02-24T11:26:29.031Z,6.82
2023-02-24T11:27:28.914Z,7
2023-02-24T11:28:28.655Z,7.21
2023-02-24T11:29:28.642Z,7.27
2023-02-24T11:30:28.739Z,7.23
2023-02-24T11:31:30.294Z,7.21
2023-02-24T11:32:29.116Z,7.27
2023-02-24T11:33:28.921Z,7.31
2023-02-24T11:34:28.926Z,7.41
2023-02-24T11:35:28.808Z,7.45
2023-02-24T11:36:28.775Z,7.56
2023-02-24T11:37:28.252Z,7.51
2023-02-24T11:38:28.498Z,7.4
2023-02-24T11:39:28.473Z,7.37
2023-02-24T11:40:28.574Z,7.49
2023-02-24T11:41:28.948Z,7.54
2023-02-24T11:42:28.685Z,7.33
2023-02-24T11:43:28.214Z,7.51
2023-02-24T11:44:28.421Z,7.56
2023-02-24T11:45:28.652Z,7.64
2023-02-24T11:46:28.315Z,7.56
2023-02-24T11:47:28.629Z,7.78
2023-02-24T11:48:28.603Z,7.77
2023-02-24T11:49:28.705Z,7.89
2023-02-24T11:50:28.583Z,7.85
2023-02-24T11:51:28.944Z,7.88
2023-02-24T11:52:28.565Z,7.93
2023-02-24T11:53:28.528Z,8.07
2023-02-24T11:54:28.015Z,7.98
2023-02-24T11:55:30.413Z,8.09
2023-02-24T11:56:29.379Z,8.06
2023-02-24T11:57:29.076Z,7.99
2023-02-24T11:58:28.207Z,7.98
2023-02-24T11:59:29.100Z,7.78
2023-02-24T12:00:29.315Z,7.74
2023-02-24T12:01:30.115Z,7.8
2023-02-24T12:02:29.458Z,7.71
2023-02-24T12:03:28.807Z,7.78
2023-02-24T12:04:29.246Z,7.78
2023-02-24T12:05:29.683Z,7.83
2023-02-24T12:06:28.833Z,7.83
2023-02-24T12:07:28.568Z,7.77
2023-02-24T12:08:29.274Z,7.83
2023-02-24T12:09:28.974Z,7.8
2023-02-24T12:10:29.793Z,7.78
2023-02-24T12:11:29.725Z,7.78
2023-02-24T12:12:29.272Z,7.74
2023-02-24T12:13:29.007Z,7.64
2023-02-24T12:14:28.786Z,7.59
2023-02-24T12:15:29.786Z,7.49
2023-02-24T12:16:29.077Z,7.52
2023-02-24T12:17:28.830Z,7.48
2023-02-24T12:18:29.064Z,7.45
2023-02-24T12:19:28.633Z,7.49
2023-02-24T12:20:28.754Z,7.59
2023-02-24T12:21:29.805Z,7.75
2023-02-24T12:22:28.548Z,7.85
2023-02-24T12:23:28.288Z,7.96
2023-02-24T12:24:28.540Z,7.96
2023-02-24T12:25:28.501Z,7.99
2023-02-24T12:26:28.493Z,8.13
2023-02-24T12:27:28.478Z,7.96
2023-02-24T12:28:28.446Z,7.89
2023-02-24T12:29:28.182Z,7.83
2023-02-24T12:30:28.302Z,7.82
2023-02-24T12:31:29.484Z,7.63
2023-02-24T12:32:28.317Z,7.52
2023-02-24T12:33:28.388Z,7.31
2023-02-24T12:34:28.119Z,7.12
2023-02-24T12:35:28.386Z,6.98
2023-02-24T12:36:30.841Z,6.88
2023-02-24T12:37:28.407Z,6.76
2023-02-24T12:38:28.321Z,6.58
2023-02-24T12:39:28.035Z,6.6
2023-02-24T12:40:28.271Z,6.51
2023-02-24T12:41:28.626Z,6.37
2023-02-24T12:42:27.999Z,6.31
2023-02-24T12:43:28.250Z,6.2
2023-02-24T12:44:28.222Z,6.17
2023-02-24T12:45:27.768Z,6.18
2023-02-24T12:46:28.115Z,6.28
2023-02-24T12:47:27.934Z,6.25
2023-02-24T12:48:28.149Z,6.51
2023-02-24T12:49:27.898Z,6.51
2023-02-24T12:50:27.885Z,6.52
2023-02-24T12:51:28.612Z,6.61
2023-02-24T12:52:28.084Z,6.64
2023-02-24T12:53:28.251Z,6.73
2023-02-24T12:54:27.820Z,6.83
2023-02-24T12:55:27.590Z,6.88
2023-02-24T12:56:28.050Z,6.98
2023-02-24T12:57:28.034Z,7.04
2023-02-24T12:58:28.229Z,7.16
2023-02-24T12:59:28.001Z,7.21
2023-02-24T13:00:27.712Z,7.29
2023-02-24T13:01:28.661Z,7.3
2023-02-24T13:02:28.286Z,7.27
2023-02-24T13:03:27.706Z,7.31
2023-02-24T13:04:27.735Z,7.34
2023-02-24T13:05:27.904Z,7.39
2023-02-24T13:06:27.881Z,7.41
2023-02-24T13:07:27.870Z,7.47
2023-02-24T13:08:27.603Z,7.44
2023-02-24T13:09:28.045Z,7.48
2023-02-24T13:10:27.828Z,7.55
2023-02-24T13:11:28.236Z,7.52
2023-02-24T13:12:27.881Z,7.49
2023-02-24T13:13:27.563Z,7.47
2023-02-24T13:14:27.782Z,7.47
2023-02-24T13:15:27.866Z,7.49
2023-02-24T13:16:27.632Z,7.51
2023-02-24T13:17:27.761Z,7.49
2023-02-24T13:18:27.705Z,7.48
2023-02-24T13:19:27.690Z,7.45
2023-02-24T13:20:27.434Z,7.48
2023-02-24T13:21:28.089Z,7.48
2023-02-24T13:22:27.657Z,7.36
2023-02-24T13:23:28.516Z,7.27
2023-02-24T13:24:28.511Z,7.27
2023-02-24T13:25:28.594Z,7.19
2023-02-24T13:26:28.472Z,7.15
2023-02-24T13:27:28.473Z,7.19
2023-02-24T13:28:28.432Z,7.08
2023-02-24T13:29:28.169Z,7.01
2023-02-24T13:30:28.446Z,7.01
2023-02-24T13:31:28.935Z,7
2023-02-24T13:32:28.898Z,7.05
2023-02-24T13:33:28.394Z,7.03
2023-02-24T13:34:28.092Z,7.12
2023-02-24T13:35:27.839Z,7.23
2023-02-24T13:36:28.308Z,7.18
2023-02-24T13:37:28.074Z,7.19
2023-02-24T13:38:28.035Z,7.27